Time;durP1;ratioP1;P1;durP2;ratioP2;P2;SDS_P1;SDS_P2;PMS_P1;PMS_P2;Temp;Humidity;BMP_temperature;BMP_pressure;BME280_temperature;BME280_humidity;BME280_pressure;Samples;Min_cycle;Max_cycle;Signal;HPM_P1;HPM_P2
2023/05/07 00:01:49;;;;;;;;;;;;;;;23.49;100.00;101475.16;5110521;28;19912;-53
2023/05/07 00:04:14;;;;;;;;;;;;;;;23.47;100.00;101471.88;5098938;28;19916;-54
2023/05/07 00:06:40;;;;;;;;;;;;;;;23.46;100.00;101472.97;5105806;28;19930;-51
2023/05/07 00:09:06;;;;;;;;;;;;;;;23.37;100.00;101474.59;5107453;28;19951;-50
2023/05/07 00:11:31;;;;;;;;;;;;;;;23.36;100.00;101475.69;5110114;28;19927;-55
2023/05/07 00:13:57;;;;;;;;;;;;;;;23.39;100.00;101481.41;5102598;28;19912;-54
2023/05/07 00:16:22;;;;;;;;;;;;;;;23.45;100.00;101476.78;5105564;28;19920;-53
2023/05/07 00:18:47;;;;;;;;;;;;;;;23.44;100.00;101472.41;5107628;28;20394;-54
2023/05/07 00:21:13;;;;;;;;;;;;;;;23.44;100.00;101478.72;5101481;28;19920;-57
2023/05/07 00:23:38;;;;;;;;;;;;;;;23.45;100.00;101471.34;5104578;28;19938;-52
2023/05/07 00:26:04;;;;;;;;;;;;;;;23.47;100.00;101469.16;5106339;28;20002;-57
2023/05/07 00:28:29;;;;;;;;;;;;;;;23.48;100.00;101462.59;5106787;28;19979;-56
2023/05/07 00:30:55;;;;;;;;;;;;;;;23.60;100.00;101452.28;5103082;28;19938;-55
2023/05/07 00:33:20;;;;;;;;;;;;;;;23.53;100.00;101454.47;5105343;28;19916;-53
2023/05/07 00:35:46;;;;;;;;;;;;;;;23.61;100.00;101453.09;5088111;28;19916;-54
2023/05/07 00:38:11;;;;;;;;;;;;;;;23.41;100.00;101440.22;5105558;28;19919;-53
2023/05/07 00:40:36;;;;;;;;;;;;;;;23.55;100.00;101448.72;5087138;28;19976;-51
2023/05/07 00:43:02;;;;;;;;;;;;;;;23.50;100.00;101444.06;5103431;28;19924;-52
2023/05/07 00:45:28;;;;;;;;;;;;;;;23.57;100.00;101444.63;5104008;28;19916;-53
2023/05/07 00:47:55;;;;;;;;;;;;;;;23.44;100.00;101442.41;5091076;28;19965;-54
2023/05/07 00:50:20;;;;;;;;;;;;;;;23.30;100.00;101442.91;5086768;28;19947;-54
2023/05/07 00:52:45;;;;;;;;;;;;;;;23.36;100.00;101448.38;5094276;28;19920;-54
2023/05/07 00:55:14;;;;;;;;;;;;;;;23.19;100.00;101438.47;5119728;28;19988;-51
2023/05/07 00:57:40;;;;;;;;;;;;;;;23.24;100.00;101446.66;5147708;27;19920;-55
2023/05/07 01:00:08;;;;;;;;;;;;;;;23.33;100.00;101444.28;5117264;28;19923;-52
2023/05/07 01:02:34;;;;;;;;;;;;;;;23.33;100.00;101445.09;5122002;28;19919;-51
2023/05/07 01:05:00;;;;;;;;;;;;;;;23.37;100.00;101444.56;5123813;28;19916;-57
2023/05/07 01:07:26;;;;;;;;;;;;;;;23.42;100.00;101436.41;5122388;28;19954;-55
2023/05/07 01:09:53;;;;;;;;;;;;;;;23.39;100.00;101431.47;5122515;28;19915;-57
2023/05/07 01:12:18;;;;;;;;;;;;;;;23.47;100.00;101433.66;5121123;28;19920;-52
2023/05/07 01:14:44;;;;;;;;;;;;;;;23.46;100.00;101438.31;5124857;28;19915;-57
2023/05/07 01:17:10;;;;;;;;;;;;;;;23.57;100.00;101446.53;5115707;28;19920;-53
2023/05/07 01:19:36;;;;;;;;;;;;;;;23.61;100.00;101439.44;5155082;27;19926;-54
2023/05/07 01:22:04;;;;;;;;;;;;;;;23.50;100.00;101438.59;5118344;28;19979;-52
2023/05/07 01:24:31;;;;;;;;;;;;;;;23.33;100.00;101431.47;5120551;28;19938;-54
2023/05/07 01:26:56;;;;;;;;;;;;;;;23.28;100.00;101425.97;5114934;28;19923;-53
2023/05/07 01:29:23;;;;;;;;;;;;;;;23.43;100.00;101430.69;5116321;28;19916;-53
2023/05/07 01:31:50;;;;;;;;;;;;;;;23.61;100.00;101431.25;5117307;28;19983;-54
2023/05/07 01:34:17;;;;;;;;;;;;;;;23.42;100.00;101430.94;5115184;28;19987;-56
2023/05/07 01:36:42;;;;;;;;;;;;;;;23.44;100.00;101432.31;5114695;28;19923;-55
2023/05/07 01:39:08;;;;;;;;;;;;;;;23.44;100.00;101432.31;5115849;28;19920;-55
2023/05/07 01:41:34;;;;;;;;;;;;;;;23.34;100.00;101427.66;5113379;28;19923;-55
2023/05/07 01:44:01;;;;;;;;;;;;;;;23.38;100.00;101425.19;5112171;28;19923;-52
2023/05/07 01:46:27;;;;;;;;;;;;;;;23.43;100.00;101429.84;5120693;28;19967;-55
2023/05/07 01:48:53;;;;;;;;;;;;;;;23.46;100.00;101430.13;5114740;28;19962;-52
2023/05/07 01:51:20;;;;;;;;;;;;;;;23.49;100.00;101431.50;5113584;28;19919;-54
2023/05/07 01:53:47;;;;;;;;;;;;;;;23.61;100.00;101433.97;5112723;28;19932;-55
2023/05/07 01:56:13;;;;;;;;;;;;;;;23.59;100.00;101425.25;5116674;28;19916;-52
2023/05/07 01:58:40;;;;;;;;;;;;;;;23.50;100.00;101430.41;5117860;28;19942;-52
2023/05/07 02:01:07;;;;;;;;;;;;;;;23.57;100.00;101431.00;5117595;28;19916;-54
2023/05/07 02:03:32;;;;;;;;;;;;;;;23.57;100.00;101438.34;5116781;28;19920;-51
2023/05/07 02:06:06;;;;;;;;;;;;;;;23.55;100.00;101430.44;5121957;28;19946;-51
2023/05/07 02:08:35;;;;;;;;;;;;;;;23.63;100.00;101427.16;5115861;28;19919;-52
2023/05/07 02:11:01;;;;;;;;;;;;;;;23.70;100.00;101431.53;5120772;28;19971;-55
2023/05/07 02:13:28;;;;;;;;;;;;;;;23.79;100.00;101424.47;5121422;28;19920;-52
2023/05/07 02:15:54;;;;;;;;;;;;;;;23.63;100.00;101420.88;5118141;28;19916;-53
2023/05/07 02:18:20;;;;;;;;;;;;;;;23.52;100.00;101417.31;5113638;28;19927;-50
2023/05/07 02:20:47;;;;;;;;;;;;;;;23.48;100.00;101422.50;5120718;28;19916;-50
2023/05/07 02:23:12;;;;;;;;;;;;;;;23.36;100.00;101418.38;5120285;28;19934;-49
2023/05/07 02:25:38;;;;;;;;;;;;;;;23.40;100.00;101420.28;5123954;28;19966;-51
2023/05/07 02:28:03;;;;;;;;;;;;;;;23.36;100.00;101421.91;5117916;28;19924;-53
2023/05/07 02:30:40;;;;;;;;;;;;;;;23.29;100.00;101422.16;5117748;28;19916;-55
2023/05/07 02:33:08;;;;;;;;;;;;;;;23.32;100.00;101426.25;5119222;28;19913;-54
2023/05/07 02:35:33;;;;;;;;;;;;;;;23.28;100.00;101420.50;5118555;28;19955;-52
2023/05/07 02:37:59;;;;;;;;;;;;;;;23.13;100.00;101431.34;5116179;28;19983;-53
2023/05/07 02:40:25;;;;;;;;;;;;;;;23.14;100.00;101430.25;5116544;28;19938;-53
2023/05/07 02:42:50;;;;;;;;;;;;;;;23.23;100.00;101427.84;5120446;28;19992;-51
2023/05/07 02:45:16;;;;;;;;;;;;;;;23.26;100.00;101430.06;5117309;28;19923;-52
2023/05/07 02:47:42;;;;;;;;;;;;;;;23.38;100.00;101427.91;5120801;28;19942;-54
2023/05/07 02:50:07;;;;;;;;;;;;;;;23.51;100.00;101440.22;5121990;28;19976;-53
2023/05/07 02:52:33;;;;;;;;;;;;;;;23.54;100.00;101438.88;5124535;28;19927;-53
2023/05/07 02:54:59;;;;;;;;;;;;;;;23.37;100.00;101436.38;5124629;28;19916;-54
2023/05/07 02:57:24;;;;;;;;;;;;;;;23.48;100.00;101436.16;5121330;28;19996;-51
2023/05/07 02:59:50;;;;;;;;;;;;;;;23.53;100.00;101431.78;5123720;28;20019;-50
2023/05/07 03:02:18;;;;;;;;;;;;;;;23.42;100.00;101422.75;5124587;28;19937;-51
2023/05/07 03:04:44;;;;;;;;;;;;;;;23.42;100.00;101426.31;5124739;28;19924;-50
2023/05/07 03:07:09;;;;;;;;;;;;;;;23.32;100.00;101418.91;5121612;28;19916;-52
2023/05/07 03:09:35;;;;;;;;;;;;;;;23.32;100.00;101420.81;5126087;28;19916;-54
2023/05/07 03:12:01;;;;;;;;;;;;;;;23.39;100.00;101424.09;5123560;28;19935;-55
2023/05/07 03:14:27;;;;;;;;;;;;;;;23.29;100.00;101421.34;5125546;28;19920;-53
2023/05/07 03:16:53;;;;;;;;;;;;;;;23.11;100.00;101412.50;5103962;28;19951;-51
2023/05/07 03:19:18;;;;;;;;;;;;;;;23.22;100.00;101418.81;5127129;28;19916;-50
2023/05/07 03:21:43;;;;;;;;;;;;;;;23.21;100.00;101411.72;5124926;27;19951;-52
2023/05/07 03:24:09;;;;;;;;;;;;;;;23.20;100.00;101407.38;5123764;28;19916;-52
2023/05/07 03:26:35;;;;;;;;;;;;;;;22.92;100.00;101412.16;5130435;28;19923;-52
2023/05/07 03:29:01;;;;;;;;;;;;;;;22.95;100.00;101416.25;5122733;28;19916;-54
2023/05/07 03:31:27;;;;;;;;;;;;;;;23.18;100.00;101417.72;5128007;28;19922;-50
2023/05/07 03:33:54;;;;;;;;;;;;;;;23.12;100.00;101421.53;5125427;28;19955;-51
2023/05/07 03:36:19;;;;;;;;;;;;;;;23.14;100.00;101424.81;5126367;28;19927;-53
2023/05/07 03:38:45;;;;;;;;;;;;;;;23.02;100.00;101420.38;5122664;28;19934;-55
2023/05/07 03:41:11;;;;;;;;;;;;;;;23.01;100.00;101417.94;5119806;28;19916;-55
2023/05/07 03:43:37;;;;;;;;;;;;;;;22.96;100.00;101407.81;5115358;28;19917;-54
2023/05/07 03:46:07;;;;;;;;;;;;;;;22.89;100.00;101418.16;5119396;28;19979;-54
2023/05/07 03:48:32;;;;;;;;;;;;;;;22.95;100.00;101414.34;5124998;27;19993;-55
2023/05/07 03:50:58;;;;;;;;;;;;;;;23.12;100.00;101421.53;5113941;28;19938;-55
2023/05/07 03:53:27;;;;;;;;;;;;;;;23.01;100.00;101421.47;5114900;28;19942;-56
2023/05/07 03:55:53;;;;;;;;;;;;;;;23.08;100.00;101420.44;5117203;28;19947;-56
2023/05/07 03:58:20;;;;;;;;;;;;;;;22.91;100.00;101415.97;5114941;28;19931;-53
2023/05/07 04:00:46;;;;;;;;;;;;;;;23.09;100.00;101428.31;5116472;28;19920;-51
2023/05/07 04:03:19;;;;;;;;;;;;;;;23.19;100.00;101428.38;5114869;28;19916;-51
2023/05/07 04:05:45;;;;;;;;;;;;;;;22.93;100.00;101424.72;5115711;28;19922;-52
2023/05/07 04:08:11;;;;;;;;;;;;;;;23.21;100.00;101433.56;5116872;28;19916;-56
2023/05/07 04:10:40;;;;;;;;;;;;;;;23.28;100.00;101431.41;5113022;28;19916;-51
2023/05/07 04:13:08;;;;;;;;;;;;;;;23.33;100.00;101428.75;5114505;28;19931;-54
2023/05/07 04:15:35;;;;;;;;;;;;;;;23.21;100.00;101430.81;5116300;28;19916;-52
2023/05/07 04:18:01;;;;;;;;;;;;;;;23.16;100.00;101430.81;5116547;28;19920;-53
2023/05/07 04:20:26;;;;;;;;;;;;;;;23.21;100.00;101441.75;5120904;28;19939;-53
2023/05/07 04:22:58;;;;;;;;;;;;;;;23.19;100.00;101441.19;5120508;28;19908;-56
2023/05/07 04:25:26;;;;;;;;;;;;;;;23.12;100.00;101432.44;5115801;28;19931;-52
2023/05/07 04:27:56;;;;;;;;;;;;;;;23.14;100.00;101438.44;5121767;28;19924;-56
2023/05/07 04:30:25;;;;;;;;;;;;;;;23.15;100.00;101431.91;5119046;28;19923;-54
2023/05/07 04:32:51;;;;;;;;;;;;;;;22.97;100.00;101436.72;5110293;28;19920;-56
2023/05/07 04:35:17;;;;;;;;;;;;;;;23.01;100.00;101432.38;5119428;28;19916;-56
2023/05/07 04:37:43;;;;;;;;;;;;;;;23.03;100.00;101427.47;5115641;28;19920;-51
2023/05/07 04:40:09;;;;;;;;;;;;;;;23.13;100.00;101431.34;5119469;28;19939;-50
2023/05/07 04:42:35;;;;;;;;;;;;;;;23.18;100.00;101432.19;5119609;28;20635;-50
2023/05/07 04:45:01;;;;;;;;;;;;;;;23.32;100.00;101438.00;5116827;28;19916;-49
2023/05/07 04:47:29;;;;;;;;;;;;;;;23.21;100.00;101433.56;5116615;28;19927;-50
2023/05/07 04:49:55;;;;;;;;;;;;;;;23.23;100.00;101439.56;5120332;28;19920;-53
2023/05/07 04:52:20;;;;;;;;;;;;;;;23.28;100.00;101436.06;5113453;28;19927;-54
2023/05/07 04:54:45;;;;;;;;;;;;;;;23.22;100.00;101437.13;5116578;28;20015;-51
2023/05/07 04:57:11;;;;;;;;;;;;;;;23.30;100.00;101437.47;5115380;28;19927;-52
2023/05/07 04:59:36;;;;;;;;;;;;;;;23.30;100.00;101442.91;5119149;28;19916;-52
2023/05/07 05:02:03;;;;;;;;;;;;;;;23.35;100.00;101453.00;5113519;28;19915;-54
2023/05/07 05:04:30;;;;;;;;;;;;;;;23.38;100.00;101460.66;5113922;28;19999;-50
2023/05/07 05:06:56;;;;;;;;;;;;;;;23.14;100.00;101457.53;5118283;28;19946;-53
2023/05/07 05:09:21;;;;;;;;;;;;;;;23.19;100.00;101454.81;5120005;28;19916;-53
2023/05/07 05:11:47;;;;;;;;;;;;;;;23.28;100.00;101453.25;5114501;28;20018;-52
2023/05/07 05:14:13;;;;;;;;;;;;;;;23.17;100.00;101457.00;5114458;28;19920;-54
2023/05/07 05:16:39;;;;;;;;;;;;;;;23.25;100.00;101459.25;5116898;28;19991;-51
2023/05/07 05:19:05;;;;;;;;;;;;;;;23.28;100.00;101460.63;5116693;28;19924;-51
2023/05/07 05:21:34;;;;;;;;;;;;;;;23.36;100.00;101462.84;5113234;28;19931;-54
2023/05/07 05:24:06;;;;;;;;;;;;;;;23.39;100.00;101458.75;5118143;28;19979;-53
2023/05/07 05:26:31;;;;;;;;;;;;;;;23.38;100.00;101462.59;5115895;28;19915;-52
2023/05/07 05:28:57;;;;;;;;;;;;;;;23.28;100.00;101461.44;5118286;28;19916;-51
2023/05/07 05:31:24;;;;;;;;;;;;;;;23.33;100.00;101464.22;5122399;28;19920;-54
2023/05/07 05:33:50;;;;;;;;;;;;;;;23.33;100.00;101472.41;5122724;28;19938;-54
2023/05/07 05:36:16;;;;;;;;;;;;;;;23.34;100.00;101474.03;5122875;28;19916;-51
2023/05/07 05:38:44;;;;;;;;;;;;;;;23.42;100.00;101480.91;5117365;28;19920;-56
2023/05/07 05:41:11;;;;;;;;;;;;;;;23.53;100.00;101480.91;5149744;27;19934;-56
2023/05/07 05:43:36;;;;;;;;;;;;;;;23.68;100.00;101485.59;5120053;28;19920;-54
2023/05/07 05:46:04;;;;;;;;;;;;;;;23.67;100.00;101481.22;5121106;28;19976;-51
2023/05/07 05:48:30;;;;;;;;;;;;;;;23.68;100.00;101488.34;5121601;28;19990;-56
2023/05/07 05:50:57;;;;;;;;;;;;;;;23.58;100.00;101494.56;5117466;28;19939;-55
2023/05/07 05:53:23;;;;;;;;;;;;;;;23.66;100.00;101495.97;5111492;28;19920;-55
2023/05/07 05:55:49;;;;;;;;;;;;;;;23.68;100.00;101493.78;5088856;28;19920;-53
2023/05/07 05:58:15;;;;;;;;;;;;;;;23.63;100.00;101498.16;5090103;28;19920;-54
2023/05/07 06:00:48;;;;;;;;;;;;;;;23.77;100.00;101494.94;5126654;28;19916;-49
2023/05/07 06:03:14;;;;;;;;;;;;;;;23.60;100.00;101498.69;5128654;28;19920;-53
2023/05/07 06:05:41;;;;;;;;;;;;;;;23.64;100.00;101493.50;5087605;28;19935;-51
2023/05/07 06:08:07;;;;;;;;;;;;;;;23.69;100.00;101496.28;5123122;28;19917;-53
2023/05/07 06:10:35;;;;;;;;;;;;;;;23.64;100.00;101496.22;5090471;28;19916;-54
2023/05/07 06:13:00;;;;;;;;;;;;;;;23.67;100.00;101495.72;5123816;28;19916;-52
2023/05/07 06:15:26;;;;;;;;;;;;;;;23.59;100.00;101505.25;5088779;28;19919;-52
2023/05/07 06:17:52;;;;;;;;;;;;;;;23.54;100.00;101502.50;5089048;28;19920;-52
2023/05/07 06:20:17;;;;;;;;;;;;;;;23.57;100.00;101499.22;5104680;28;19923;-54
2023/05/07 06:22:43;;;;;;;;;;;;;;;23.46;100.00;101498.38;5094051;28;20026;-49
2023/05/07 06:25:10;;;;;;;;;;;;;;;23.48;100.00;101511.72;5089733;28;19916;-53
2023/05/07 06:27:37;;;;;;;;;;;;;;;23.53;100.00;101509.06;5090981;28;19995;-50
2023/05/07 06:30:03;;;;;;;;;;;;;;;23.54;100.00;101516.16;5106963;28;19912;-54
2023/05/07 06:32:28;;;;;;;;;;;;;;;23.37;100.00;101510.06;5110466;28;19923;-54
2023/05/07 06:34:55;;;;;;;;;;;;;;;23.51;100.00;101505.75;5089371;28;19927;-50
2023/05/07 06:37:20;;;;;;;;;;;;;;;23.59;100.00;101507.13;5125756;28;19928;-51
2023/05/07 06:39:59;;;;;;;;;;;;;;;23.55;100.00;101506.03;5125992;28;19916;-52
2023/05/07 06:42:25;;;;;;;;;;;;;;;23.52;100.00;101501.13;5089474;28;19966;-57
2023/05/07 06:44:56;;;;;;;;;;;;;;;23.70;100.00;101508.00;5087625;28;19954;-52
2023/05/07 06:47:21;;;;;;;;;;;;;;;23.76;100.00;101506.94;5111348;28;19917;-56
2023/05/07 06:49:51;;;;;;;;;;;;;;;23.66;100.00;101512.34;5124807;28;19927;-54
2023/05/07 06:52:20;;;;;;;;;;;;;;;23.86;100.00;101515.16;5126099;27;19920;-54
2023/05/07 06:54:47;;;;;;;;;;;;;;;23.74;100.00;101509.94;5118007;28;19934;-56
2023/05/07 06:57:15;;;;;;;;;;;;;;;23.82;100.00;101505.03;5117494;28;19927;-51
2023/05/07 06:59:41;;;;;;;;;;;;;;;23.66;100.00;101521.38;5118844;28;19916;-52
2023/05/07 07:02:08;;;;;;;;;;;;;;;23.52;100.00;101520.22;5114646;28;19916;-52
2023/05/07 07:04:34;;;;;;;;;;;;;;;23.65;100.00;101521.63;5115481;28;19916;-52
2023/05/07 07:07:04;;;;;;;;;;;;;;;23.62;100.00;101514.78;5122415;28;19924;-54
2023/05/07 07:09:30;;;;;;;;;;;;;;;23.77;100.00;101516.78;5122113;28;19916;-50
2023/05/07 07:11:57;;;;;;;;;;;;;;;23.76;100.00;101512.41;5119707;28;19927;-51
2023/05/07 07:14:23;;;;;;;;;;;;;;;23.94;100.00;101521.16;5127766;28;19916;-51
2023/05/07 07:16:51;;;;;;;;;;;;;;;23.94;100.00;101518.44;5125061;28;19979;-55
2023/05/07 07:19:20;;;;;;;;;;;;;;;24.07;100.00;101517.97;5121792;28;19924;-54
2023/05/07 07:21:47;;;;;;;;;;;;;;;24.17;100.00;101523.44;5121911;28;19982;-53
2023/05/07 07:24:18;;;;;;;;;;;;;;;24.15;100.00;101528.34;5125701;28;19923;-52
2023/05/07 07:26:44;;;;;;;;;;;;;;;24.30;100.00;101524.81;5151928;27;20016;-53
2023/05/07 07:29:11;;;;;;;;;;;;;;;24.16;100.00;101523.72;5124630;28;19920;-52
2023/05/07 07:31:38;;;;;;;;;;;;;;;24.14;100.00;101526.72;5154444;27;19916;-52
2023/05/07 07:34:04;;;;;;;;;;;;;;;24.39;100.00;101525.09;5124102;28;19915;-52
2023/05/07 07:36:29;;;;;;;;;;;;;;;24.37;100.00;101535.47;5121325;28;19922;-50
2023/05/07 07:38:55;;;;;;;;;;;;;;;24.34;100.00;101528.66;5127822;28;19966;-53
2023/05/07 07:41:21;;;;;;;;;;;;;;;24.54;100.00;101537.13;5124334;28;19919;-53
2023/05/07 07:43:46;;;;;;;;;;;;;;;24.77;100.00;101539.34;5125796;28;19923;-52
2023/05/07 07:46:13;;;;;;;;;;;;;;;24.86;100.00;101533.31;5123878;28;19916;-53
2023/05/07 07:48:39;;;;;;;;;;;;;;;24.84;100.00;101536.34;5123864;28;19916;-53
2023/05/07 07:51:05;;;;;;;;;;;;;;;25.09;100.00;101542.03;5122229;28;19926;-54
2023/05/07 07:53:31;;;;;;;;;;;;;;;24.96;100.00;101548.88;5122393;28;19930;-54
2023/05/07 07:55:57;;;;;;;;;;;;;;;25.23;100.00;101547.72;5123154;28;19951;-51
2023/05/07 07:58:25;;;;;;;;;;;;;;;25.31;100.00;101550.72;5121389;28;19984;-56
2023/05/07 08:00:51;;;;;;;;;;;;;;;25.20;100.00;101549.13;5123588;28;19919;-52
2023/05/07 08:03:16;;;;;;;;;;;;;;;25.39;100.00;101549.34;5121942;28;19916;-53
2023/05/07 08:05:46;;;;;;;;;;;;;;;25.76;100.00;101547.28;5102849;28;19988;-52
2023/05/07 08:08:11;;;;;;;;;;;;;;;25.80;100.00;101547.56;5121677;28;19927;-52
2023/05/07 08:10:39;;;;;;;;;;;;;;;25.85;100.00;101548.34;5121711;28;19967;-53
2023/05/07 08:13:11;;;;;;;;;;;;;;;26.00;100.00;101552.09;5124114;28;19923;-52
2023/05/07 08:15:38;;;;;;;;;;;;;;;26.19;99.55;101555.03;5119875;28;19936;-55
2023/05/07 08:18:05;;;;;;;;;;;;;;;26.25;98.91;101555.81;5118833;28;19927;-53
2023/05/07 08:20:31;;;;;;;;;;;;;;;26.39;97.30;101551.31;5119187;28;19946;-51
2023/05/07 08:22:57;;;;;;;;;;;;;;;26.39;97.02;101551.31;5121305;28;19942;-52
2023/05/07 08:25:24;;;;;;;;;;;;;;;26.41;96.90;101554.59;5121776;28;19920;-55
2023/05/07 08:27:50;;;;;;;;;;;;;;;26.54;96.39;101544.91;5152280;27;19931;-54
2023/05/07 08:30:15;;;;;;;;;;;;;;;26.47;95.71;101553.44;5121125;28;19958;-53
2023/05/07 08:32:41;;;;;;;;;;;;;;;26.39;94.99;101556.81;5120561;28;19916;-53
2023/05/07 08:35:07;;;;;;;;;;;;;;;26.42;94.64;101556.22;5120943;28;19947;-54
2023/05/07 08:37:33;;;;;;;;;;;;;;;26.58;94.37;101553.38;5117418;28;19998;-52
2023/05/07 08:39:59;;;;;;;;;;;;;;;26.80;93.61;101558.38;5116249;28;19927;-54
2023/05/07 08:42:31;;;;;;;;;;;;;;;27.11;92.51;101562.78;5121528;28;19916;-54
2023/05/07 08:44:59;;;;;;;;;;;;;;;27.38;90.70;101564.97;5120007;28;19916;-53
2023/05/07 08:47:27;;;;;;;;;;;;;;;27.41;91.14;101566.28;5151513;27;19920;-56
2023/05/07 08:49:55;;;;;;;;;;;;;;;27.23;90.40;101568.69;5120206;28;19983;-53
2023/05/07 08:52:21;;;;;;;;;;;;;;;27.37;90.06;101565.25;5117889;28;19987;-56
2023/05/07 08:54:47;;;;;;;;;;;;;;;27.52;89.11;101569.75;5120088;28;19989;-53
2023/05/07 08:57:13;;;;;;;;;;;;;;;27.30;88.84;101569.16;5123412;28;19916;-52
2023/05/07 08:59:39;;;;;;;;;;;;;;;27.62;88.83;101564.97;5121990;28;19979;-55
2023/05/07 09:02:09;;;;;;;;;;;;;;;27.68;88.71;101568.47;5122933;28;19916;-54
2023/05/07 09:04:34;;;;;;;;;;;;;;;28.03;86.96;101563.59;5121085;28;19951;-50
2023/05/07 09:07:05;;;;;;;;;;;;;;;28.16;85.57;101573.06;5123120;28;19927;-54
2023/05/07 09:09:32;;;;;;;;;;;;;;;28.16;84.79;101578.56;5150772;27;19916;-54
2023/05/07 09:12:01;;;;;;;;;;;;;;;28.19;84.71;101575.22;5123702;28;19916;-56
2023/05/07 09:14:30;;;;;;;;;;;;;;;28.30;83.74;101575.06;5124076;28;19923;-54
2023/05/07 09:16:56;;;;;;;;;;;;;;;28.43;82.12;101577.06;5123003;28;19920;-53
2023/05/07 09:19:23;;;;;;;;;;;;;;;28.66;80.78;101579.16;5118969;28;19950;-55
2023/05/07 09:21:48;;;;;;;;;;;;;;;28.96;79.22;101571.53;5122512;28;19912;-54
2023/05/07 09:24:17;;;;;;;;;;;;;;;28.88;79.52;101582.09;5126341;28;19961;-54
2023/05/07 09:26:43;;;;;;;;;;;;;;;29.06;78.83;101579.59;5122501;28;19916;-54
2023/05/07 09:29:10;;;;;;;;;;;;;;;29.51;77.99;101578.22;5118472;28;19930;-55
2023/05/07 09:31:38;;;;;;;;;;;;;;;29.81;76.65;101582.25;5123849;28;19916;-54
2023/05/07 09:34:05;;;;;;;;;;;;;;;30.20;74.05;101588.31;5124463;28;19916;-54
2023/05/07 09:36:33;;;;;;;;;;;;;;;30.65;73.22;101584.75;5120151;28;19915;-57
2023/05/07 09:38:59;;;;;;;;;;;;;;;30.66;73.17;101582.81;5121946;28;19926;-52
2023/05/07 09:41:26;;;;;;;;;;;;;;;30.78;71.61;101588.56;5119020;28;19943;-50
2023/05/07 09:44:14;;;;;;;;;;;;;;;30.90;69.49;101591.56;5145223;27;19920;-55
2023/05/07 09:46:46;;;;;;;;;;;;;;;31.00;69.24;101593.25;5116883;28;19912;-53
2023/05/07 09:49:23;;;;;;;;;;;;;;;31.21;69.12;101595.47;5120325;28;20448;-53
2023/05/07 09:51:52;;;;;;;;;;;;;;;31.40;68.47;101591.66;5122856;28;19927;-54
2023/05/07 09:54:19;;;;;;;;;;;;;;;31.51;67.32;101592.97;5120439;28;19952;-55
2023/05/07 09:56:48;;;;;;;;;;;;;;;31.44;68.36;101598.16;5118841;28;19918;-53
2023/05/07 09:59:15;;;;;;;;;;;;;;;31.09;68.47;101589.69;5120483;28;19959;-51
2023/05/07 10:01:42;;;;;;;;;;;;;;;31.16;67.91;101595.59;5120787;28;19915;-54
2023/05/07 10:04:10;;;;;;;;;;;;;;;31.17;68.38;101594.47;5120714;28;19916;-54
2023/05/07 10:06:40;;;;;;;;;;;;;;;31.08;67.90;101593.59;5148259;27;19916;-51
2023/05/07 10:09:06;;;;;;;;;;;;;;;30.94;69.05;101593.69;5121610;28;19915;-54
2023/05/07 10:11:35;;;;;;;;;;;;;;;31.17;68.40;101595.25;5118237;28;19927;-53
2023/05/07 10:14:08;;;;;;;;;;;;;;;31.24;67.75;101594.84;5121701;28;19923;-54
2023/05/07 10:16:36;;;;;;;;;;;;;;;31.26;67.18;101600.88;5118986;28;19916;-51
2023/05/07 10:19:04;;;;;;;;;;;;;;;31.32;67.22;101591.28;5118961;28;19926;-54
2023/05/07 10:21:32;;;;;;;;;;;;;;;31.28;66.82;101595.81;5120762;28;19962;-54
2023/05/07 10:24:13;;;;;;;;;;;;;;;31.56;66.82;101601.13;5121250;28;19927;-53
2023/05/07 10:26:42;;;;;;;;;;;;;;;31.66;65.95;101594.47;5156663;27;19943;-54
2023/05/07 10:29:18;;;;;;;;;;;;;;;31.64;66.39;101595.94;5122209;28;19923;-54
2023/05/07 10:31:52;;;;;;;;;;;;;;;31.81;64.82;101595.19;5125393;28;19946;-56
2023/05/07 10:34:22;;;;;;;;;;;;;;;31.08;67.33;101599.13;5119694;28;19923;-57
2023/05/07 10:36:49;;;;;;;;;;;;;;;31.27;67.48;101605.25;5121765;28;19916;-55
2023/05/07 10:39:16;;;;;;;;;;;;;;;31.42;66.35;101595.72;5127162;28;19920;-56
2023/05/07 10:41:41;;;;;;;;;;;;;;;31.48;65.91;101599.16;5129382;28;19942;-51
2023/05/07 10:44:08;;;;;;;;;;;;;;;31.60;65.40;101596.59;5124390;28;19923;-54
2023/05/07 10:46:35;;;;;;;;;;;;;;;31.81;65.12;101600.72;5126786;28;19929;-53
2023/05/07 10:49:16;;;;;;;;;;;;;;;31.97;64.89;101604.66;5156638;27;19943;-53
2023/05/07 10:52:10;;;;;;;;;;;;;;;32.18;64.09;101609.53;5125968;28;19927;-52
2023/05/07 10:54:35;;;;;;;;;;;;;;;32.31;62.69;101605.00;5124962;28;19920;-54
2023/05/07 10:57:24;;;;;;;;;;;;;;;32.40;62.34;101605.81;5122257;28;19928;-54
2023/05/07 10:59:51;;;;;;;;;;;;;;;33.13;61.51;101608.91;5120909;28;19926;-55
2023/05/07 11:02:45;;;;;;;;;;;;;;;33.44;60.03;101610.59;5121266;28;19919;-56
2023/05/07 11:05:22;;;;;;;;;;;;;;;33.96;58.87;101611.47;5120392;28;19920;-54
2023/05/07 11:08:06;;;;;;;;;;;;;;;34.20;57.68;101605.22;5123350;28;19916;-55
2023/05/07 11:10:56;;;;;;;;;;;;;;;35.45;54.87;101606.31;5124074;28;19975;-51
2023/05/07 11:13:49;;;;;;;;;;;;;;;37.01;51.25;101617.19;5149370;27;19990;-56
2023/05/07 11:16:29;;;;;;;;;;;;;;;37.34;49.97;101623.56;5150624;27;19930;-55
2023/05/07 11:19:06;;;;;;;;;;;;;;;38.78;47.29;101621.38;5158290;27;19920;-57
2023/05/07 11:21:38;;;;;;;;;;;;;;;39.32;45.56;101627.88;5116244;28;19916;-54
2023/05/07 11:24:26;;;;;;;;;;;;;;;37.90;46.09;101615.25;5123488;28;19924;-55
2023/05/07 11:27:01;;;;;;;;;;;;;;;37.02;46.96;101615.19;5119861;28;19938;-56
2023/05/07 11:29:29;;;;;;;;;;;;;;;36.26;48.32;101608.38;5120294;28;19944;-55
2023/05/07 11:32:05;;;;;;;;;;;;;;;35.81;49.20;101607.47;5122690;28;19923;-54
2023/05/07 11:34:36;;;;;;;;;;;;;;;34.93;51.30;101603.03;5118085;28;19923;-57
2023/05/07 11:37:02;;;;;;;;;;;;;;;34.98;50.59;101604.78;5127655;28;19915;-52
2023/05/07 11:39:46;;;;;;;;;;;;;;;34.84;51.65;101610.69;5119560;28;20402;-56
2023/05/07 11:42:31;;;;;;;;;;;;;;;34.56;52.13;101608.50;5115826;28;19900;-56
2023/05/07 11:44:57;;;;;;;;;;;;;;;34.62;52.13;101606.31;5117733;28;19916;-58
2023/05/07 11:47:22;;;;;;;;;;;;;;;34.42;52.06;101606.00;5116359;28;19974;-53
2023/05/07 11:49:48;;;;;;;;;;;;;;;34.39;52.54;101606.69;5118604;28;19975;-56
2023/05/07 11:52:14;;;;;;;;;;;;;;;34.00;52.84;101610.44;5124381;28;19962;-53
2023/05/07 11:54:39;;;;;;;;;;;;;;;34.45;52.17;101608.91;5119724;28;19916;-54
2023/05/07 11:57:05;;;;;;;;;;;;;;;34.52;52.22;101610.34;5115131;28;19979;-52
2023/05/07 11:59:38;;;;;;;;;;;;;;;34.76;51.63;101609.59;5115168;28;19967;-54
2023/05/07 12:02:04;;;;;;;;;;;;;;;34.95;51.36;101600.72;5114819;28;19916;-54
2023/05/07 12:04:29;;;;;;;;;;;;;;;35.51;50.16;101610.50;5118101;28;19916;-57
2023/05/07 12:06:56;;;;;;;;;;;;;;;35.32;50.19;101605.53;5115451;28;19938;-54
2023/05/07 12:09:21;;;;;;;;;;;;;;;35.24;49.92;101610.03;5121367;28;19916;-54
2023/05/07 12:11:47;;;;;;;;;;;;;;;35.46;49.12;101619.06;5115595;28;19920;-53
2023/05/07 12:14:13;;;;;;;;;;;;;;;35.68;48.83;101608.63;5116334;28;19916;-55
2023/05/07 12:16:39;;;;;;;;;;;;;;;35.91;48.42;101614.50;5117782;28;19930;-54
2023/05/07 12:19:08;;;;;;;;;;;;;;;35.38;49.33;101618.00;5122007;28;19956;-55
2023/05/07 12:21:34;;;;;;;;;;;;;;;35.35;48.85;101617.94;5122659;28;19972;-54
2023/05/07 12:23:59;;;;;;;;;;;;;;;35.00;49.08;101619.97;5122992;28;19923;-56
2023/05/07 12:26:24;;;;;;;;;;;;;;;34.77;49.08;101621.50;5121790;28;19942;-54
2023/05/07 12:28:50;;;;;;;;;;;;;;;34.79;49.49;101619.22;5125755;28;19920;-54
2023/05/07 12:31:16;;;;;;;;;;;;;;;34.53;49.67;101620.28;5125351;28;19923;-50
2023/05/07 12:33:41;;;;;;;;;;;;;;;34.10;50.06;101617.53;5124076;28;19924;-56